Time;durP1;ratioP1;P1;durP2;ratioP2;P2;SDS_P1;SDS_P2;PMS_P1;PMS_P2;Temp;Humidity;BMP_temperature;BMP_pressure;BME280_temperature;BME280_humidity;BME280_pressure;Samples;Min_cycle;Max_cycle;Signal;HPM_P1;HPM_P2
2021/03/06 00:01:57;;;;;;;55.30;23.10;;;;;;;-3.21;70.83;99969.55;2112775;84;21153;-77
2021/03/06 00:04:58;;;;;;;49.80;21.67;;;;;;;-3.19;70.81;99968.39;2112868;84;21272;-78
2021/03/06 00:07:59;;;;;;;51.80;20.73;;;;;;;-3.23;70.83;99970.70;2112661;84;21167;-77
2021/03/06 00:11:00;;;;;;;47.60;21.90;;;;;;;-3.26;71.00;99965.33;2112897;84;21185;-77
2021/03/06 00:14:01;;;;;;;52.03;22.83;;;;;;;-3.20;71.43;99977.72;2112583;84;21307;-78
2021/03/06 00:17:03;;;;;;;50.90;22.10;;;;;;;-3.17;71.09;99981.80;2112459;84;21446;-78
2021/03/06 00:20:04;;;;;;;60.77;24.30;;;;;;;-3.17;71.31;99979.63;2078766;84;21463;-78
2021/03/06 00:23:05;;;;;;;62.93;26.50;;;;;;;-3.15;71.35;99975.16;2104968;85;21132;-77
2021/03/06 00:26:06;;;;;;;56.73;25.13;;;;;;;-3.13;71.50;99975.29;2105465;85;21153;-77
2021/03/06 00:29:07;;;;;;;63.23;25.87;;;;;;;-3.12;71.67;99973.25;2105308;85;21193;-77
2021/03/06 00:32:08;;;;;;;61.33;26.53;;;;;;;-3.13;71.64;99979.13;2105256;85;21495;-77
2021/03/06 00:35:09;;;;;;;62.57;27.00;;;;;;;-3.17;71.65;99977.08;2105060;85;21172;-77
2021/03/06 00:38:10;;;;;;;64.97;27.80;;;;;;;-3.21;71.90;99966.61;2104765;85;21157;-77
2021/03/06 00:41:11;;;;;;;67.50;27.57;;;;;;;-3.26;71.66;99971.72;2105125;85;21162;-77
2021/03/06 00:44:13;;;;;;;68.77;28.53;;;;;;;-3.28;71.94;99978.36;2105597;85;21547;-77
2021/03/06 00:47:14;;;;;;;71.23;28.67;;;;;;;-3.31;72.01;99980.66;2104887;85;21185;-77
2021/03/06 00:50:15;;;;;;;69.87;27.43;;;;;;;-3.32;72.04;99972.48;2104672;85;21162;-77
2021/03/06 00:53:16;;;;;;;58.57;24.17;;;;;;;-3.29;72.24;99968.91;2104167;85;21202;-76
2021/03/06 00:56:17;;;;;;;59.43;25.20;;;;;;;-3.31;72.34;99965.33;2104045;85;21150;-77
2021/03/06 00:59:18;;;;;;;52.87;24.90;;;;;;;-3.32;72.38;99961.38;2104457;85;21522;-78
2021/03/06 01:02:19;;;;;;;46.90;21.73;;;;;;;-3.34;72.36;99963.80;2104458;85;21291;-77
2021/03/06 01:05:21;;;;;;;40.13;19.77;;;;;;;-3.36;72.56;99964.05;2105075;85;21304;-77
2021/03/06 01:08:22;;;;;;;44.77;19.43;;;;;;;-3.40;72.72;99968.77;2104851;85;21444;-78
2021/03/06 01:11:25;;;;;;;39.93;20.33;;;;;;;-3.44;73.01;99959.97;2105080;85;21193;-77
2021/03/06 01:14:29;;;;;;;47.50;22.50;;;;;;;-3.45;72.97;99959.45;2105321;85;21148;-76
2021/03/06 01:17:30;;;;;;;43.23;21.93;;;;;;;-3.43;73.15;99961.75;2105161;85;21146;-76
2021/03/06 01:20:31;;;;;;;46.50;22.37;;;;;;;-3.43;72.83;99973.24;2105007;85;21184;-76
2021/03/06 01:23:32;;;;;;;41.97;21.80;;;;;;;-3.43;72.67;99967.24;2105228;85;21161;-76
2021/03/06 01:26:33;;;;;;;46.40;21.47;;;;;;;-3.43;72.60;99974.52;2105129;85;21454;-77
2021/03/06 01:29:34;;;;;;;42.07;20.20;;;;;;;-3.42;72.57;99976.69;2105464;85;21284;-77
2021/03/06 01:32:35;;;;;;;38.73;19.93;;;;;;;-3.44;72.71;99984.22;2105124;85;21240;-76
2021/03/06 01:35:39;;;;;;;35.47;17.60;;;;;;;-3.44;73.36;99984.22;2105412;85;21165;-77
2021/03/06 01:38:40;;;;;;;39.13;18.83;;;;;;;-3.48;73.20;99984.69;2105061;85;21470;-77
2021/03/06 01:41:41;;;;;;;41.73;19.63;;;;;;;-3.54;73.16;99986.34;2105276;85;21272;-77
2021/03/06 01:44:42;;;;;;;41.43;19.10;;;;;;;-3.58;73.33;99983.41;2105367;85;21153;-77
2021/03/06 01:47:43;;;;;;;34.07;18.33;;;;;;;-3.61;73.35;99980.59;2104962;85;21126;-77
2021/03/06 01:50:44;;;;;;;37.23;20.03;;;;;;;-3.63;73.47;99980.45;2105389;85;21122;-77
2021/03/06 01:53:45;;;;;;;42.93;19.80;;;;;;;-3.63;73.40;99977.91;2105252;85;21214;-77
2021/03/06 01:56:49;;;;;;;34.77;19.73;;;;;;;-3.62;73.48;99983.91;2105205;85;21149;-76
2021/03/06 01:59:50;;;;;;;45.57;20.77;;;;;;;-3.61;73.16;99985.31;2105180;85;21161;-77
2021/03/06 02:02:51;;;;;;;36.00;19.50;;;;;;;-3.60;73.98;99991.31;2105286;85;21173;-76
2021/03/06 02:05:52;;;;;;;38.67;17.20;;;;;;;-3.64;73.33;99990.16;2105273;85;21158;-77
2021/03/06 02:08:54;;;;;;;36.37;17.47;;;;;;;-3.64;73.79;99993.09;2105173;85;21152;-76
2021/03/06 02:11:55;;;;;;;42.10;20.40;;;;;;;-3.65;73.83;99988.36;2105257;85;21573;-77
2021/03/06 02:14:58;;;;;;;38.93;17.47;;;;;;;-3.67;73.97;99992.83;2105413;85;21178;-77
2021/03/06 02:17:59;;;;;;;44.40;20.37;;;;;;;-3.66;73.92;99991.69;2105387;85;21149;-76
2021/03/06 02:21:01;;;;;;;34.60;16.77;;;;;;;-3.64;74.12;99997.81;2092074;84;21323;-77
2021/03/06 02:24:03;;;;;;;35.90;16.37;;;;;;;-3.58;74.23;99997.44;2075344;86;21283;-76
2021/03/06 02:27:04;;;;;;;40.23;19.57;;;;;;;-3.55;74.08;99996.42;2075303;84;21283;-77
2021/03/06 02:30:05;;;;;;;40.63;17.83;;;;;;;-3.49;74.11;100000.77;2075126;84;21145;-76
2021/03/06 02:33:06;;;;;;;41.80;17.20;;;;;;;;;;2074884;84;21303;-77
2021/03/06 02:36:07;;;;;;;41.23;18.60;;;;;;;-3.44;73.94;100003.75;2074971;84;21148;-76
2021/03/06 02:39:08;;;;;;;43.23;19.00;;;;;;;-3.45;73.89;100008.34;2074524;84;21502;-76
2021/03/06 02:42:09;;;;;;;42.87;21.77;;;;;;;-3.47;73.91;100009.45;2074586;84;21153;-76
2021/03/06 02:45:10;;;;;;;48.53;20.93;;;;;;;-3.49;74.17;100009.70;2074682;84;21656;-76
2021/03/06 02:48:11;;;;;;;38.83;19.53;;;;;;;-3.50;74.18;100011.74;2075240;84;21157;-76
2021/03/06 02:51:12;;;;;;;41.53;20.90;;;;;;;-3.54;74.06;100008.04;2075296;84;21310;-76
2021/03/06 02:54:13;;;;;;;46.07;20.63;;;;;;;-3.58;74.21;100012.37;2075350;84;21156;-78
2021/03/06 02:57:20;;;;;;;38.70;19.63;;;;;;;-3.63;74.24;100013.63;2075400;84;21271;-76
2021/03/06 03:00:21;;;;;;;39.37;18.80;;;;;;;-3.64;74.34;100013.50;2075532;84;21264;-76
2021/03/06 03:03:22;;;;;;;41.57;18.17;;;;;;;-3.67;74.33;100020.89;2075263;84;21271;-78
2021/03/06 03:06:27;;;;;;;35.90;18.13;;;;;;;-3.69;74.60;100025.87;2075408;86;21113;-78
2021/03/06 03:09:28;;;;;;;;;;;;;;;-3.71;74.46;100029.05;2077876;84;21255;-77
2021/03/06 03:12:29;;;;;;;39.30;18.00;;;;;;;-3.76;74.47;100031.59;2075963;84;20341;-77
2021/03/06 03:15:30;;;;;;;35.53;18.10;;;;;;;-3.81;74.86;100035.40;2075611;84;21277;-78
2021/03/06 03:18:31;;;;;;;35.77;17.57;;;;;;;-3.85;74.63;100032.58;2075094;84;21268;-77
2021/03/06 03:21:32;;;;;;;33.77;17.33;;;;;;;-3.86;74.58;100040.10;2075228;84;21291;-77
2021/03/06 03:24:33;;;;;;;45.40;18.83;;;;;;;-3.89;74.59;100046.21;2075737;86;21272;-77
2021/03/06 03:27:34;;;;;;;37.73;18.23;;;;;;;-3.93;74.62;100046.70;2075086;86;21292;-77
2021/03/06 03:30:37;;;;;;;42.33;19.50;;;;;;;-3.96;74.59;100047.34;2075029;86;21721;-78
2021/03/06 03:33:38;;;;;;;45.40;18.87;;;;;;;-3.96;74.64;100054.98;2075155;86;21205;-77
2021/03/06 03:36:39;;;;;;;36.57;17.87;;;;;;;-3.97;74.55;100054.85;2075306;86;21438;-77
2021/03/06 03:39:41;;;;;;;41.50;20.07;;;;;;;-3.99;73.99;100049.63;2075323;86;21263;-77
2021/03/06 03:42:42;;;;;;;41.27;20.00;;;;;;;-4.02;73.98;100052.28;2074943;86;21141;-78
2021/03/06 03:45:43;;;;;;;71.50;23.13;;;;;;;-4.06;73.81;100056.59;2074665;86;21153;-77
2021/03/06 03:48:44;;;;;;;46.97;21.90;;;;;;;-4.09;73.93;100058.88;2075100;86;21553;-77
2021/03/06 03:51:45;;;;;;;104.77;23.73;;;;;;;-4.11;73.79;100058.75;2075217;86;21303;-77
2021/03/06 03:54:46;;;;;;;65.23;23.97;;;;;;;-4.15;73.68;100063.06;2075304;86;21288;-78
2021/03/06 03:57:47;;;;;;;57.03;22.37;;;;;;;-4.17;73.88;100059.10;2075082;86;21276;-77
2021/03/06 04:00:48;;;;;;;66.20;26.97;;;;;;;-4.20;73.84;100065.59;2074991;86;21550;-76
2021/03/06 04:03:49;;;;;;;61.20;23.87;;;;;;;-4.22;74.13;100063.28;2075222;86;21292;-77
2021/03/06 04:06:50;;;;;;;54.43;22.60;;;;;;;-4.25;73.62;100066.83;2074753;86;21275;-78
2021/03/06 04:09:51;;;;;;;56.73;23.37;;;;;;;-4.37;72.92;100070.80;2075152;86;21133;-78
2021/03/06 04:12:52;;;;;;;59.77;22.07;;;;;;;-4.49;73.07;100075.32;2074403;86;21291;-78
2021/03/06 04:15:53;;;;;;;53.67;21.83;;;;;;;-4.58;72.90;100075.77;2074940;86;21264;-78
2021/03/06 04:18:54;;;;;;;51.07;22.47;;;;;;;-4.61;72.75;100075.88;2074985;86;21259;-78
2021/03/06 04:21:55;;;;;;;54.90;20.70;;;;;;;-4.65;72.98;100089.09;2074716;85;21427;-78
2021/03/06 04:24:56;;;;;;;137.93;24.47;;;;;;;-4.69;72.93;100085.38;2073968;86;21260;-77
2021/03/06 04:27:58;;;;;;;244.70;29.73;;;;;;;-4.77;72.34;100094.34;2074430;86;21145;-76
2021/03/06 04:30:59;;;;;;;88.97;21.03;;;;;;;-4.87;72.30;100093.51;2074339;86;21330;-76
2021/03/06 04:34:00;;;;;;;40.07;16.27;;;;;;;-4.90;72.26;100088.52;2075101;86;21264;-76
2021/03/06 04:37:01;;;;;;;38.23;18.43;;;;;;;-4.95;71.98;100093.19;2074198;86;21149;-77
2021/03/06 04:40:02;;;;;;;66.63;22.27;;;;;;;-5.01;72.23;100100.27;2073536;86;21189;-77
2021/03/06 04:43:03;;;;;;;45.53;16.40;;;;;;;-5.03;72.70;100100.50;2073270;86;21276;-76
2021/03/06 04:46:04;;;;;;;31.23;13.77;;;;;;;-4.99;72.81;100108.94;2072703;86;21227;-77
2021/03/06 04:49:05;;;;;;;32.47;15.33;;;;;;;-5.02;72.24;100106.11;2072279;86;21462;-77
2021/03/06 04:52:06;;;;;;;29.30;13.77;;;;;;;-5.09;71.96;100107.57;2072145;86;21635;-77
2021/03/06 04:55:07;;;;;;;34.47;15.40;;;;;;;-5.18;71.72;100109.27;2072511;86;21231;-78
2021/03/06 04:58:08;;;;;;;34.93;15.60;;;;;;;-5.24;71.76;100109.55;2072747;86;21144;-77
2021/03/06 05:01:10;;;;;;;34.47;16.13;;;;;;;-5.25;72.08;100106.48;2072815;86;21446;-77
2021/03/06 05:04:11;;;;;;;28.83;15.57;;;;;;;-5.22;72.26;100106.77;2073057;86;21144;-78
2021/03/06 05:07:12;;;;;;;37.40;16.60;;;;;;;-5.22;72.17;100109.32;2071947;86;21262;-78
2021/03/06 05:10:13;;;;;;;71.47;20.93;;;;;;;-5.27;72.00;100118.17;2072545;86;21279;-78
2021/03/06 05:13:14;;;;;;;109.30;22.17;;;;;;;-5.30;72.03;100120.81;2073041;86;21315;-77
2021/03/06 05:16:15;;;;;;;50.27;16.60;;;;;;;-5.27;72.42;100120.72;2072520;86;21288;-78
2021/03/06 05:19:16;;;;;;;51.70;17.90;;;;;;;-5.23;72.30;100121.53;2073112;86;21133;-78
2021/03/06 05:22:17;;;;;;;43.30;17.17;;;;;;;-5.21;72.17;100120.02;2073367;84;21179;-78
2021/03/06 05:25:18;;;;;;;38.97;16.13;;;;;;;-5.16;72.40;100112.47;2073798;84;21410;-78
2021/03/06 05:28:19;;;;;;;30.60;15.03;;;;;;;-5.12;72.09;100119.13;2073938;84;21312;-77
2021/03/06 05:31:20;;;;;;;37.47;17.67;;;;;;;-5.13;71.96;100118.22;2074060;86;21302;-78
2021/03/06 05:34:21;;;;;;;39.43;17.77;;;;;;;-5.08;72.69;100118.27;2073709;84;21145;-78
2021/03/06 05:37:22;;;;;;;35.37;16.67;;;;;;;-4.98;72.90;100118.75;2072940;86;21276;-77
2021/03/06 05:40:23;;;;;;;85.30;22.23;;;;;;;-4.91;73.16;100118.55;2073388;84;21153;-77
2021/03/06 05:43:24;;;;;;;76.17;21.87;;;;;;;-4.84;73.06;100125.63;2073758;84;21283;-77
2021/03/06 05:46:25;;;;;;;45.33;20.20;;;;;;;-4.73;73.17;100121.52;2073478;84;21231;-78
2021/03/06 05:49:26;;;;;;;131.10;23.67;;;;;;;-4.62;73.10;100133.95;2073737;84;21778;-77
2021/03/06 05:52:27;;;;;;;86.87;21.30;;;;;;;-4.57;72.78;100135.27;2073782;84;21440;-78
2021/03/06 05:55:29;;;;;;;53.23;22.63;;;;;;;-4.48;72.70;100139.93;2074116;86;21272;-77
2021/03/06 05:58:30;;;;;;;60.77;23.73;;;;;;;-4.31;73.03;100145.31;2073352;84;21276;-77
2021/03/06 06:01:31;;;;;;;50.67;23.50;;;;;;;-4.18;73.18;100147.83;2073255;84;21274;-77
2021/03/06 06:04:32;;;;;;;47.90;22.37;;;;;;;-3.99;73.06;100142.72;2074329;84;21141;-77
2021/03/06 06:07:33;;;;;;;58.00;23.77;;;;;;;-3.78;72.88;100142.82;2073990;84;21259;-76
2021/03/06 06:10:34;;;;;;;43.67;23.00;;;;;;;-3.59;72.76;100146.23;2074089;84;21610;-76
2021/03/06 06:13:35;;;;;;;48.33;24.53;;;;;;;-3.40;72.64;100155.14;2074582;84;21169;-78
2021/03/06 06:16:36;;;;;;;57.90;27.60;;;;;;;-3.27;72.48;100160.55;2074669;84;21140;-78
2021/03/06 06:19:38;;;;;;;53.70;27.17;;;;;;;-2.97;72.93;100169.95;2074248;84;21259;-77
2021/03/06 06:22:39;;;;;;;62.00;30.33;;;;;;;-2.84;72.51;100177.89;2073903;84;21165;-76
2021/03/06 06:25:40;;;;;;;61.73;28.70;;;;;;;-2.75;72.53;100179.06;2073510;86;21287;-77
2021/03/06 06:28:41;;;;;;;57.23;26.90;;;;;;;-2.64;72.24;100176.64;2073094;86;21137;-77
2021/03/06 06:31:42;;;;;;;53.73;25.90;;;;;;;-2.57;72.23;100186.66;2072967;86;21303;-77
2021/03/06 06:34:43;;;;;;;43.90;21.43;;;;;;;-2.47;72.38;100189.98;2072931;86;21144;-76
2021/03/06 06:37:44;;;;;;;59.27;27.93;;;;;;;-2.36;72.19;100190.11;2073658;86;21121;-76
2021/03/06 06:40:46;;;;;;;51.33;25.03;;;;;;;-2.20;72.23;100194.84;2073732;86;21164;-78
2021/03/06 06:43:47;;;;;;;48.10;23.97;;;;;;;-1.98;72.01;100194.56;2073455;86;21256;-77
2021/03/06 06:46:48;;;;;;;56.23;24.77;;;;;;;-1.82;71.62;100204.77;2072964;86;21569;-77
2021/03/06 06:49:49;;;;;;;49.43;24.90;;;;;;;-1.80;71.12;100208.36;2073002;86;21160;-77
2021/03/06 06:52:50;;;;;;;52.10;24.13;;;;;;;-1.82;71.13;100213.73;2073360;86;21315;-77
2021/03/06 06:55:51;;;;;;;48.83;25.47;;;;;;;-1.75;71.23;100227.55;2073372;86;21165;-76
2021/03/06 06:58:52;;;;;;;48.50;23.47;;;;;;;-1.67;71.17;100230.37;2074101;86;21168;-77
2021/03/06 07:01:53;;;;;;;54.70;26.00;;;;;;;-1.51;71.06;100228.29;2073260;86;21636;-77
2021/03/06 07:04:54;;;;;;;51.60;26.10;;;;;;;-1.39;70.50;100226.72;2071523;86;21147;-76
2021/03/06 07:07:55;;;;;;;52.87;25.03;;;;;;;-1.32;70.52;100231.56;2072739;86;21304;-77
2021/03/06 07:10:57;;;;;;;65.77;30.90;;;;;;;-1.20;70.20;100234.59;2073115;86;21156;-76
2021/03/06 07:14:00;;;;;;;43.30;22.23;;;;;;;-1.13;70.16;100234.31;2072900;86;22122;-76
2021/03/06 07:17:01;;;;;;;46.53;21.13;;;;;;;-0.98;70.31;100228.73;2073079;86;21259;-77
2021/03/06 07:20:02;;;;;;;51.77;24.03;;;;;;;-0.89;69.24;100228.94;2073697;86;21152;-76
2021/03/06 07:23:04;;;;;;;49.00;25.43;;;;;;;-0.90;69.54;100238.30;2098451;83;21295;-77
2021/03/06 07:26:05;;;;;;;54.47;25.77;;;;;;;-0.85;69.05;100238.70;2111627;84;21153;-77
2021/03/06 07:29:06;;;;;;;51.33;24.47;;;;;;;-0.82;69.20;100233.42;2112206;84;21230;-77
2021/03/06 07:32:07;;;;;;;42.33;21.97;;;;;;;-0.71;69.01;100235.16;2112468;84;21314;-78
2021/03/06 07:35:09;;;;;;;48.07;22.27;;;;;;;0.13;75.46;100235.20;2111195;84;21296;-77
2021/03/06 07:38:10;;;;;;;45.67;22.27;;;;;;;1.24;67.10;100237.31;2111222;84;21566;-77
2021/03/06 07:41:11;;;;;;;51.40;24.83;;;;;;;0.92;66.17;100237.59;2111558;84;21466;-77
2021/03/06 07:44:12;;;;;;;50.27;25.50;;;;;;;0.82;65.86;100237.69;2111328;84;21296;-77
2021/03/06 07:47:13;;;;;;;46.90;24.03;;;;;;;1.13;67.29;100232.70;2111838;84;21228;-79
2021/03/06 07:50:14;;;;;;;47.97;24.97;;;;;;;1.15;65.58;100228.95;2111239;84;21296;-77
2021/03/06 07:53:16;;;;;;;46.00;23.70;;;;;;;1.21;65.71;100225.52;2111327;84;21205;-76
2021/03/06 07:56:17;;;;;;;42.30;22.37;;;;;;;1.27;64.98;100224.27;2111102;84;21431;-76
2021/03/06 07:59:19;;;;;;;42.07;21.80;;;;;;;1.25;64.60;100220.70;2110996;84;21197;-76
2021/03/06 08:02:20;;;;;;;33.30;17.67;;;;;;;1.31;64.96;100220.63;2110760;84;21562;-76
2021/03/06 08:05:21;;;;;;;50.03;25.43;;;;;;;1.46;64.31;100220.02;2111394;84;21149;-76
2021/03/06 08:08:22;;;;;;;42.80;20.53;;;;;;;1.53;64.52;100219.66;2111636;84;21272;-76
2021/03/06 08:11:23;;;;;;;44.90;22.57;;;;;;;1.55;63.22;100226.19;2111489;84;21279;-76
2021/03/06 08:14:24;;;;;;;42.90;20.63;;;;;;;1.51;63.04;100231.52;2111397;84;21165;-76
2021/03/06 08:17:25;;;;;;;35.60;16.20;;;;;;;1.43;64.01;100228.81;2111461;84;21935;-76
2021/03/06 08:20:26;;;;;;;30.93;16.17;;;;;;;1.39;63.36;100220.77;2111283;84;21167;-76
2021/03/06 08:23:30;;;;;;;36.00;16.50;;;;;;;1.41;63.52;100224.34;2110732;84;21169;-76
2021/03/06 08:26:30;;;;;;;40.27;18.47;;;;;;;1.31;62.86;100227.06;2110786;84;21311;-78
2021/03/06 08:29:31;;;;;;;39.00;20.80;;;;;;;1.32;62.86;100223.70;2111175;84;21157;-76
2021/03/06 08:32:33;;;;;;;44.93;23.07;;;;;;;1.41;62.92;100221.38;2110915;84;21929;-76
2021/03/06 08:35:34;;;;;;;49.53;22.90;;;;;;;1.46;63.15;100224.27;2110989;84;21169;-77
2021/03/06 08:38:35;;;;;;;45.30;22.90;;;;;;;1.70;63.73;100223.38;2111096;84;21263;-76
2021/03/06 08:41:36;;;;;;;46.03;21.60;;;;;;;2.06;63.43;100217.69;2111141;84;21157;-77
2021/03/06 08:44:37;;;;;;;32.33;16.87;;;;;;;2.24;62.72;100216.33;2111289;84;21149;-77
2021/03/06 08:47:38;;;;;;;24.37;12.03;;;;;;;2.40;62.38;100219.13;2111206;84;21153;-77
2021/03/06 08:50:39;;;;;;;30.00;15.33;;;;;;;2.40;61.22;100219.13;2112035;84;21169;-78
2021/03/06 08:53:40;;;;;;;28.90;15.60;;;;;;;2.36;60.03;100222.30;2111598;84;21601;-76
2021/03/06 08:56:41;;;;;;;23.63;14.30;;;;;;;2.27;60.05;100224.27;2111348;84;21161;-77
2021/03/06 08:59:42;;;;;;;17.60;9.67;;;;;;;2.40;60.69;100222.99;2111074;84;21149;-76
2021/03/06 09:02:43;;;;;;;22.63;11.77;;;;;;;2.44;58.11;100222.80;2110476;84;21291;-77
2021/03/06 09:05:44;;;;;;;34.93;13.60;;;;;;;2.43;59.22;100223.20;2111454;84;21403;-77
2021/03/06 09:08:45;;;;;;;17.67;8.57;;;;;;;2.49;57.95;100222.70;2111343;84;21283;-76
2021/03/06 09:11:47;;;;;;;19.90;9.40;;;;;;;2.52;57.41;100224.19;2111466;84;21213;-77
2021/03/06 09:14:48;;;;;;;20.50;11.33;;;;;;;2.65;58.49;100222.05;2111229;84;21590;-77
2021/03/06 09:17:49;;;;;;;18.60;9.50;;;;;;;2.60;56.95;100227.27;2111960;84;21279;-77
2021/03/06 09:20:50;;;;;;;16.93;9.20;;;;;;;2.68;56.01;100227.41;2111927;84;21281;-78
2021/03/06 09:23:51;;;;;;;17.20;9.73;;;;;;;2.79;56.73;100214.41;2111376;84;21288;-77
2021/03/06 09:26:52;;;;;;;19.90;9.47;;;;;;;3.04;57.30;100209.12;2103541;85;21126;-77
2021/03/06 09:29:53;;;;;;;20.20;9.60;;;;;;;3.04;57.30;100209.12;2103757;85;21309;-77
2021/03/06 09:32:54;;;;;;;19.00;9.80;;;;;;;3.33;55.57;100220.36;2104462;85;21196;-76
2021/03/06 09:35:55;;;;;;;16.07;9.43;;;;;;;3.47;56.95;100219.16;2103787;85;21205;-77
2021/03/06 09:38:58;;;;;;;19.80;10.23;;;;;;;3.66;55.21;100219.00;2103870;85;21193;-76
2021/03/06 09:41:59;;;;;;;22.23;11.53;;;;;;;3.79;56.83;100219.83;2104469;85;21118;-76
2021/03/06 09:45:00;;;;;;;20.80;11.37;;;;;;;3.87;55.03;100228.44;2103377;85;21299;-78
2021/03/06 09:48:02;;;;;;;24.83;10.83;;;;;;;3.80;54.64;100228.07;2104396;85;21601;-77
2021/03/06 09:51:03;;;;;;;17.70;10.43;;;;;;;3.76;54.13;100235.14;2104731;85;21149;-77
2021/03/06 09:54:04;;;;;;;15.73;10.10;;;;;;;3.83;54.35;100232.53;2104522;85;21312;-77
2021/03/06 09:57:06;;;;;;;17.00;10.50;;;;;;;4.14;52.01;100231.38;2103975;85;21638;-77
2021/03/06 10:00:07;;;;;;;16.30;10.53;;;;;;;4.33;51.43;100225.19;2103343;85;21307;-76
2021/03/06 10:03:08;;;;;;;13.77;9.37;;;;;;;4.50;53.33;100230.48;2103393;85;21149;-76
2021/03/06 10:06:10;;;;;;;14.63;8.77;;;;;;;4.66;52.00;100222.39;2103233;85;21547;-77
2021/03/06 10:09:11;;;;;;;16.07;10.27;;;;;;;4.38;52.21;100221.21;2103846;85;21427;-76
2021/03/06 10:12:13;;;;;;;18.10;9.63;;;;;;;4.16;52.36;100220.33;2104398;85;21304;-77
2021/03/06 10:15:16;;;;;;;18.60;10.90;;;;;;;4.45;50.46;100218.17;2103854;85;21185;-77
2021/03/06 10:18:17;;;;;;;20.17;9.93;;;;;;;4.48;51.07;100224.81;2104574;85;21312;-76
2021/03/06 10:21:18;;;;;;;15.73;8.20;;;;;;;4.60;50.84;100223.34;2103734;85;21295;-76
2021/03/06 10:24:19;;;;;;;13.00;6.53;;;;;;;4.33;48.47;100220.02;2103742;85;21303;-77
2021/03/06 10:27:20;;;;;;;12.40;7.27;;;;;;;4.28;47.64;100220.15;2103492;85;21161;-76
2021/03/06 10:30:22;;;;;;;10.93;7.30;;;;;;;4.46;47.93;100212.20;2103710;85;21269;-76
2021/03/06 10:33:23;;;;;;;18.53;8.60;;;;;;;4.76;47.57;100204.00;2104488;85;21570;-76
2021/03/06 10:36:24;;;;;;;16.23;8.23;;;;;;;4.96;47.21;100202.52;2103988;85;21292;-76
2021/03/06 10:39:25;;;;;;;13.83;7.97;;;;;;;4.36;45.53;100210.29;2102643;85;21291;-77
2021/03/06 10:42:26;;;;;;;16.37;10.47;;;;;;;3.95;47.29;100213.00;2103091;85;21144;-76
2021/03/06 10:45:27;;;;;;;14.43;7.10;;;;;;;4.11;48.30;100204.95;2104243;85;21142;-77
2021/03/06 10:48:28;;;;;;;13.63;7.07;;;;;;;4.20;48.24;100206.29;2103490;85;21157;-77
2021/03/06 10:51:29;;;;;;;9.83;6.20;;;;;;;3.87;47.32;100206.08;2104527;85;21137;-76
2021/03/06 10:54:30;;;;;;;13.53;6.80;;;;;;;3.60;48.98;100198.86;2103729;85;21303;-77
2021/03/06 10:57:31;;;;;;;11.50;6.50;;;;;;;3.47;49.74;100201.09;2103035;85;21450;-77
2021/03/06 11:00:32;;;;;;;9.60;6.03;;;;;;;3.56;48.86;100196.00;2103457;85;21272;-77
2021/03/06 11:03:33;;;;;;;11.73;6.60;;;;;;;3.54;49.11;100199.78;2102012;85;21311;-77
2021/03/06 11:06:34;;;;;;;12.70;6.53;;;;;;;3.58;48.90;100189.23;2102029;85;21280;-77
2021/03/06 11:09:36;;;;;;;9.63;6.40;;;;;;;3.62;49.05;100184.35;2104021;85;21268;-76
2021/03/06 11:12:37;;;;;;;9.83;6.93;;;;;;;3.64;48.08;100176.30;2103818;85;21173;-76
2021/03/06 11:15:38;;;;;;;11.93;6.50;;;;;;;4.02;47.02;100169.53;2103799;85;21280;-77
2021/03/06 11:18:39;;;;;;;10.87;6.70;;;;;;;4.56;46.86;100172.24;2104146;85;21186;-77
2021/03/06 11:21:40;;;;;;;9.93;6.27;;;;;;;5.03;44.00;100171.41;2104555;85;21156;-76
2021/03/06 11:24:41;;;;;;;10.30;6.17;;;;;;;5.21;44.36;100165.97;2105758;84;21229;-78
2021/03/06 11:27:42;;;;;;;5.90;4.73;;;;;;;5.40;41.72;100158.77;2112538;84;21296;-77
2021/03/06 11:30:43;;;;;;;10.23;7.10;;;;;;;5.10;39.97;100156.30;2112532;84;21305;-76
2021/03/06 11:33:47;;;;;;;15.13;8.63;;;;;;;5.10;39.97;100156.30;2112169;84;21655;-76
2021/03/06 11:36:48;;;;;;;10.60;6.50;;;;;;;5.27;42.55;100148.58;2112577;84;21283;-77
2021/03/06 11:39:49;;;;;;;18.23;7.80;;;;;;;5.64;41.42;100144.52;2112324;84;21153;-76
2021/03/06 11:42:50;;;;;;;8.97;4.60;;;;;;;5.92;38.75;100147.27;2112269;84;21291;-77
2021/03/06 11:45:51;;;;;;;10.40;5.57;;;;;;;6.15;39.28;100131.20;2112074;84;21288;-77
2021/03/06 11:48:53;;;;;;;6.63;5.20;;;;;;;6.18;37.57;100134.34;2112477;84;21284;-77
2021/03/06 11:51:54;;;;;;;6.93;4.80;;;;;;;6.04;35.53;100120.27;2112733;84;21330;-78
2021/03/06 11:54:55;;;;;;;9.73;4.73;;;;;;;6.16;37.07;100125.20;2112424;84;21149;-77
2021/03/06 11:57:56;;;;;;;10.00;6.60;;;;;;;6.31;38.57;100114.28;2112260;84;21173;-77
2021/03/06 12:00:57;;;;;;;13.53;7.43;;;;;;;6.37;37.11;100122.77;2111154;84;21284;-77
2021/03/06 12:03:58;;;;;;;13.47;6.47;;;;;;;6.34;37.37;100113.13;2111121;84;21169;-78
2021/03/06 12:06:59;;;;;;;7.33;5.33;;;;;;;6.13;34.40;100114.67;2111445;84;21276;-77
2021/03/06 12:10:00;;;;;;;7.10;4.37;;;;;;;5.95;34.37;100108.14;2112621;84;21121;-77
2021/03/06 12:13:01;;;;;;;9.30;4.37;;;;;;;5.89;36.42;100102.64;2112148;84;21323;-76
2021/03/06 12:16:02;;;;;;;7.33;4.80;;;;;;;6.04;35.39;100096.05;2111733;84;21291;-76
2021/03/06 12:19:03;;;;;;;8.40;4.33;;;;;;;6.16;37.72;100100.56;2111656;84;21360;-76
2021/03/06 12:22:04;;;;;;;10.33;4.77;;;;;;;5.87;36.72;100104.64;2112181;84;21172;-77
2021/03/06 12:25:05;;;;;;;7.50;4.83;;;;;;;5.68;36.54;100097.23;2110614;84;21296;-77
2021/03/06 12:28:07;;;;;;;12.40;5.47;;;;;;;5.75;38.17;100092.85;2104835;85;21156;-76
2021/03/06 12:31:08;;;;;;;9.47;4.67;;;;;;;5.92;36.47;100084.66;2104484;85;21157;-77
2021/03/06 12:34:09;;;;;;;11.77;5.80;;;;;;;5.99;34.05;100058.64;2104300;85;21201;-77
2021/03/06 12:37:10;;;;;;;6.77;4.77;;;;;;;5.88;36.97;100085.28;2103312;85;21574;-76
2021/03/06 12:40:12;;;;;;;6.83;3.97;;;;;;;5.91;33.68;100084.58;2104314;85;21170;-77
2021/03/06 12:43:13;;;;;;;6.47;3.83;;;;;;;6.08;33.17;100077.27;2104976;85;21173;-78
2021/03/06 12:46:15;;;;;;;11.30;5.20;;;;;;;6.11;34.83;100069.64;2105001;85;21146;-76
2021/03/06 12:49:16;;;;;;;7.03;4.50;;;;;;;5.91;33.09;100074.22;2105473;85;21257;-78
2021/03/06 12:52:17;;;;;;;8.50;4.93;;;;;;;5.61;32.69;100077.02;2105141;85;21201;-78
2021/03/06 12:55:18;;;;;;;22.63;4.37;;;;;;;5.76;33.63;100070.42;2104731;85;21436;-76
2021/03/06 12:58:19;;;;;;;9.97;4.63;;;;;;;5.89;34.63;100060.26;2104781;85;21308;-78
2021/03/06 13:01:20;;;;;;;5.23;3.87;;;;;;;6.13;33.81;100071.02;2104201;85;21296;-76
2021/03/06 13:04:21;;;;;;;9.90;5.83;;;;;;;6.09;33.93;100063.90;2103155;85;21145;-77
2021/03/06 13:07:23;;;;;;;16.73;6.10;;;;;;;6.12;32.50;100069.23;2103072;85;21641;-77
2021/03/06 13:10:24;;;;;;;8.03;5.27;;;;;;;6.00;34.18;100056.12;2103885;85;21264;-77
2021/03/06 13:13:25;;;;;;;6.67;4.30;;;;;;;5.99;31.39;100051.75;2103616;85;21182;-77
2021/03/06 13:16:27;;;;;;;17.80;6.63;;;;;;;5.87;34.72;100058.00;2104232;85;21126;-76
2021/03/06 13:19:28;;;;;;;7.10;4.40;;;;;;;6.01;35.15;100055.72;2104492;85;21264;-78
2021/03/06 13:22:29;;;;;;;6.47;4.90;;;;;;;6.15;33.34;100064.20;2104139;85;21151;-77
2021/03/06 13:25:30;;;;;;;8.40;5.33;;;;;;;6.09;32.55;100066.09;2103455;85;21180;-77
2021/03/06 13:28:31;;;;;;;8.53;5.20;;;;;;;6.08;33.28;100065.60;2104745;85;21174;-77
2021/03/06 13:31:33;;;;;;;10.37;5.13;;;;;;;5.93;33.78;100058.34;2104912;85;21308;-76
2021/03/06 13:34:34;;;;;;;8.03;5.27;;;;;;;5.84;33.67;100048.78;2105158;85;21268;-77
2021/03/06 13:37:35;;;;;;;8.27;5.43;;;;;;;5.85;34.30;100056.63;2105161;85;21157;-77
2021/03/06 13:40:36;;;;;;;9.97;5.47;;;;;;;5.93;34.03;100060.52;2105185;85;21404;-77
2021/03/06 13:43:37;;;;;;;6.83;5.20;;;;;;;5.90;33.51;100063.37;2105054;85;21458;-77
2021/03/06 13:46:38;;;;;;;19.53;10.63;;;;;;;5.76;33.65;100047.99;2105456;85;21277;-77
2021/03/06 13:49:39;;;;;;;13.67;7.00;;;;;;;5.82;34.31;100053.00;2105285;85;21133;-78
2021/03/06 13:52:43;;;;;;;9.63;6.07;;;;;;;6.00;34.76;100051.34;2105273;85;21193;-77
2021/03/06 13:55:44;;;;;;;14.80;6.30;;;;;;;6.04;34.85;100046.80;2105193;85;21169;-77